createdAt,value
2022-07-28T00:02:32.588Z,1.45
2022-07-28T00:07:35.193Z,1.10
2022-07-28T00:12:38.162Z,1.38
2022-07-28T00:17:40.561Z,1.10
2022-07-28T00:22:44.853Z,1.30
2022-07-28T00:27:47.360Z,1.30
2022-07-28T00:32:49.857Z,0.98
2022-07-28T00:37:52.318Z,1.27
2022-07-28T00:42:54.762Z,1.52
2022-07-28T00:47:57.638Z,1.52
2022-07-28T00:53:01.021Z,1.38
2022-07-28T00:58:03.464Z,1.23
2022-07-28T01:03:07.278Z,1.90
2022-07-28T01:08:33.927Z,1.17
2022-07-28T01:13:59.531Z,1.38
2022-07-28T01:19:15.935Z,1.52
2022-07-28T01:24:52.667Z,1.50
2022-07-28T01:30:02.959Z,1.63
2022-07-28T01:35:23.620Z,1.38
2022-07-28T01:40:29.634Z,1.40
2022-07-28T01:45:33.880Z,1.55
2022-07-28T01:50:37.633Z,1.98
2022-07-28T01:55:43.342Z,1.70
2022-07-28T02:00:49.725Z,1.60
2022-07-28T02:05:55.801Z,1.17
2022-07-28T02:11:18.724Z,1.42
2022-07-28T02:16:25.047Z,1.45
2022-07-28T02:21:30.630Z,1.65
2022-07-28T02:26:36.850Z,1.50
2022-07-28T02:31:50.598Z,1.15
2022-07-28T02:37:03.410Z,1.83
2022-07-28T02:42:13.270Z,1.95
2022-07-28T02:47:21.499Z,1.83
2022-07-28T02:52:29.117Z,2.05
2022-07-28T02:57:32.219Z,2.08
2022-07-28T03:02:36.911Z,1.60
2022-07-28T03:07:50.431Z,1.40
2022-07-28T03:12:55.318Z,1.80
2022-07-28T03:17:58.006Z,1.40
2022-07-28T03:23:00.525Z,1.98
2022-07-28T03:28:06.061Z,1.10
2022-07-28T03:33:08.710Z,1.70
2022-07-28T03:38:18.824Z,1.33
2022-07-28T03:43:25.080Z,1.38
2022-07-28T03:48:32.973Z,1.60
2022-07-28T03:53:35.782Z,1.50
2022-07-28T03:58:38.323Z,1.52
2022-07-28T04:03:43.701Z,1.63
2022-07-28T04:08:46.862Z,1.33
2022-07-28T04:13:49.617Z,1.58
2022-07-28T04:18:52.064Z,1.48
2022-07-28T04:23:59.829Z,1.65
2022-07-28T04:29:04.480Z,1.63
2022-07-28T04:34:06.919Z,1.70
2022-07-28T04:39:11.586Z,1.30
2022-07-28T04:44:14.336Z,1.35
2022-07-28T04:49:17.321Z,1.60
2022-07-28T04:54:24.547Z,1.50
2022-07-28T04:59:28.980Z,1.50
2022-07-28T05:04:33.897Z,1.67
2022-07-28T05:09:37.721Z,1.80
2022-07-28T05:14:40.268Z,1.48
2022-07-28T05:19:42.918Z,1.58
2022-07-28T05:24:45.367Z,1.80
2022-07-28T05:29:48.176Z,2.15
2022-07-28T05:34:50.765Z,1.38
2022-07-28T05:39:53.227Z,1.88
2022-07-28T05:44:55.819Z,1.77
2022-07-28T05:50:02.098Z,1.35
2022-07-28T05:55:06.602Z,1.50
2022-07-28T06:00:12.422Z,1.48
2022-07-28T06:05:17.378Z,1.45
2022-07-28T06:10:21.790Z,1.83
2022-07-28T06:15:26.345Z,2.03
2022-07-28T06:20:28.972Z,1.20
2022-07-28T06:25:32.472Z,1.52
2022-07-28T06:30:35.077Z,1.33
2022-07-28T06:35:46.491Z,1.33
2022-07-28T06:40:53.660Z,1.35
2022-07-28T06:45:56.182Z,1.60
2022-07-28T06:50:59.923Z,1.30
2022-07-28T06:56:06.424Z,1.40
2022-07-28T07:01:10.102Z,1.83
2022-07-28T07:06:12.573Z,1.48
2022-07-28T07:11:15.062Z,1.77
2022-07-28T07:16:17.612Z,1.73
2022-07-28T07:21:20.856Z,1.42
2022-07-28T07:26:25.477Z,1.50
2022-07-28T07:31:28.071Z,1.23
2022-07-28T07:36:30.966Z,1.23
2022-07-28T07:41:33.560Z,1.45
2022-07-28T07:46:39.748Z,1.20
2022-07-28T07:51:42.369Z,1.73
2022-07-28T07:56:44.802Z,1.70
2022-07-28T08:01:50.828Z,1.30
2022-07-28T08:06:53.619Z,2.58
2022-07-28T08:11:56.122Z,1.52
2022-07-28T08:16:59.679Z,1.30
2022-07-28T08:22:02.532Z,1.38
2022-07-28T08:27:05.347Z,1.27
2022-07-28T08:32:08.161Z,1.40
2022-07-28T08:37:10.584Z,1.48
2022-07-28T08:42:18.101Z,1.00
2022-07-28T08:47:21.433Z,1.77
2022-07-28T08:52:28.433Z,1.10
2022-07-28T08:57:40.152Z,1.40
2022-07-28T09:02:46.839Z,1.50
2022-07-28T09:07:55.807Z,1.40
2022-07-28T09:12:58.435Z,1.42
2022-07-28T09:18:01.768Z,1.33
2022-07-28T09:23:42.215Z,1.40
2022-07-28T09:28:29.281Z,0.80
2022-07-28T09:33:42.990Z,1.30
2022-07-28T09:38:47.151Z,1.17
2022-07-28T09:43:54.851Z,1.08
2022-07-28T09:49:02.350Z,1.10
2022-07-28T09:54:10.746Z,1.23
2022-07-28T09:59:15.050Z,1.23
2022-07-28T10:04:36.659Z,1.08
2022-07-28T10:09:39.378Z,1.17
2022-07-28T10:14:42.331Z,1.23
2022-07-28T10:19:44.783Z,1.02
2022-07-28T10:24:50.178Z,1.50
2022-07-28T10:30:00.214Z,0.95
2022-07-28T10:35:12.473Z,1.05
2022-07-28T10:40:18.416Z,1.48
2022-07-28T10:45:21.565Z,1.13
2022-07-28T10:50:25.014Z,1.13
2022-07-28T10:55:33.249Z,1.00
2022-07-28T11:00:55.387Z,0.98
2022-07-28T11:06:19.806Z,1.40
2022-07-28T11:11:50.048Z,1.30
2022-07-28T11:17:01.830Z,0.98
2022-07-28T11:22:19.289Z,1.02
2022-07-28T11:27:49.769Z,1.13
2022-07-28T11:32:55.495Z,1.23
2022-07-28T11:38:01.143Z,1.20
2022-07-28T11:43:37.556Z,1.13
2022-07-28T11:48:44.805Z,1.20
2022-07-28T11:53:55.610Z,1.02
2022-07-28T11:59:00.722Z,0.90
2022-07-28T12:04:13.530Z,1.00
2022-07-28T12:09:23.260Z,0.80
2022-07-28T12:14:30.122Z,1.50
2022-07-28T12:19:32.971Z,1.00
2022-07-28T12:24:45.562Z,1.00
2022-07-28T12:30:02.747Z,1.20
2022-07-28T12:35:05.653Z,1.20
2022-07-28T12:40:10.691Z,1.40
2022-07-28T12:45:13.666Z,1.23
2022-07-28T12:50:18.304Z,0.60
2022-07-28T12:55:27.176Z,1.00
2022-07-28T13:00:33.543Z,1.35
2022-07-28T13:05:57.130Z,1.35
2022-07-28T13:10:59.582Z,0.95
2022-07-28T13:16:18.838Z,1.40
2022-07-28T13:21:58.816Z,0.80
2022-07-28T13:27:04.052Z,1.13
2022-07-28T13:32:07.002Z,1.13
2022-07-28T13:37:10.011Z,1.30
2022-07-28T13:42:13.286Z,1.17
2022-07-28T13:47:16.628Z,0.70
2022-07-28T13:52:32.692Z,0.70
2022-07-28T13:57:37.483Z,0.88
2022-07-28T14:02:46.037Z,1.15
2022-07-28T14:07:49.454Z,1.00
2022-07-28T14:12:51.954Z,1.20
2022-07-28T14:17:54.510Z,0.90
2022-07-28T14:22:58.346Z,1.05
2022-07-28T14:28:00.900Z,1.30
2022-07-28T14:33:06.296Z,1.05
2022-07-28T14:43:32.617Z,1.13
2022-07-28T14:48:35.098Z,1.30
2022-07-28T14:53:40.045Z,0.98
2022-07-28T14:58:52.685Z,1.15
2022-07-28T15:03:55.182Z,0.93
2022-07-28T15:08:58.564Z,1.17
2022-07-28T15:14:01.004Z,1.05
2022-07-28T15:19:03.622Z,1.00
2022-07-28T15:24:07.555Z,1.38
2022-07-28T15:29:10.074Z,1.02
2022-07-28T15:34:14.132Z,1.05
2022-07-28T15:39:17.084Z,1.05
2022-07-28T15:44:25.968Z,1.00
2022-07-28T15:49:28.782Z,1.20
2022-07-28T15:54:31.429Z,1.20
2022-07-28T15:59:49.527Z,1.08
2022-07-28T16:04:53.991Z,1.35
2022-07-28T16:09:57.178Z,0.85
2022-07-28T16:14:59.814Z,1.25
2022-07-28T16:20:03.088Z,0.90
2022-07-28T16:25:06.526Z,0.93
2022-07-28T16:30:11.468Z,1.13
2022-07-28T16:35:17.042Z,1.00
2022-07-28T16:40:20.286Z,1.08
2022-07-28T16:45:22.966Z,1.08
2022-07-28T16:50:33.813Z,0.98
2022-07-28T16:55:36.537Z,1.23
2022-07-28T17:00:38.984Z,1.10
2022-07-28T17:05:41.482Z,1.05
2022-07-28T17:10:45.740Z,1.13
2022-07-28T17:15:48.336Z,0.80
2022-07-28T17:20:51.076Z,1.02
2022-07-28T17:26:45.684Z,1.00
2022-07-28T17:31:16.198Z,0.85
2022-07-28T17:36:19.067Z,1.02
2022-07-28T17:41:21.923Z,1.10
2022-07-28T17:46:26.651Z,0.93
2022-07-28T17:51:30.804Z,1.10
2022-07-28T17:56:33.454Z,1.10
2022-07-28T18:01:38.962Z,0.80
2022-07-28T18:06:44.679Z,0.80
2022-07-28T18:11:57.585Z,0.90
2022-07-28T18:17:01.139Z,0.90
2022-07-28T18:22:03.664Z,1.20
2022-07-28T18:27:06.160Z,0.82
2022-07-28T18:32:10.111Z,1.00
2022-07-28T18:37:13.142Z,0.85
2022-07-28T18:42:16.117Z,1.20
2022-07-28T18:47:18.555Z,0.80
2022-07-28T18:52:21.002Z,1.13
2022-07-28T18:57:23.764Z,0.77
2022-07-28T19:02:26.332Z,1.10
2022-07-28T19:07:28.962Z,1.10
2022-07-28T19:12:31.538Z,1.13
2022-07-28T19:17:34.270Z,1.17
2022-07-28T19:22:36.694Z,1.13
2022-07-28T19:27:39.516Z,0.73
2022-07-28T19:32:41.998Z,1.13
2022-07-28T19:37:44.929Z,1.05
2022-07-28T19:42:48.657Z,0.88
2022-07-28T19:47:51.272Z,1.08
2022-07-28T19:52:53.923Z,1.00
2022-07-28T19:58:01.932Z,1.00
2022-07-28T20:03:13.564Z,1.58
2022-07-28T20:08:28.797Z,1.05
2022-07-28T20:13:31.414Z,1.33
2022-07-28T20:18:33.923Z,1.45
2022-07-28T20:23:38.629Z,1.20
2022-07-28T20:28:41.235Z,1.15
2022-07-28T20:33:43.752Z,1.40
2022-07-28T20:38:46.412Z,1.08
2022-07-28T20:44:11.383Z,1.42
2022-07-28T20:49:12.025Z,1.10
2022-07-28T20:54:15.241Z,1.02
2022-07-28T20:59:18.236Z,1.00
2022-07-28T21:04:20.806Z,1.33
2022-07-28T21:09:27.172Z,1.33
2022-07-28T21:14:29.856Z,1.33
2022-07-28T21:19:32.582Z,1.45
2022-07-28T21:24:35.175Z,1.38
2022-07-28T21:29:38.312Z,1.63
2022-07-28T21:34:40.876Z,1.40
2022-07-28T21:39:43.532Z,1.52
2022-07-28T21:44:47.555Z,1.65
2022-07-28T21:49:49.987Z,1.35
2022-07-28T21:54:52.677Z,1.60
2022-07-28T21:59:56.103Z,1.92
2022-07-28T22:04:58.712Z,1.60
2022-07-28T22:10:01.401Z,1.85
2022-07-28T22:15:04.556Z,1.48
2022-07-28T22:20:08.511Z,1.88
2022-07-28T22:25:10.948Z,2.05
2022-07-28T22:30:13.569Z,1.83
2022-07-28T22:35:16.409Z,2.60
2022-07-28T22:40:19.162Z,2.05
2022-07-28T22:45:49.756Z,2.33
2022-07-28T22:50:44.641Z,2.05
2022-07-28T23:01:06.800Z,1.90
2022-07-28T23:06:09.791Z,1.95
2022-07-28T23:11:12.236Z,2.28
2022-07-28T23:16:16.261Z,1.58
2022-07-28T23:21:18.658Z,2.33
2022-07-28T23:26:21.125Z,1.75
2022-07-28T23:31:23.838Z,2.30
2022-07-28T23:36:27.770Z,2.10
2022-07-28T23:41:30.552Z,2.03
2022-07-28T23:46:33.144Z,2.33
2022-07-28T23:51:47.888Z,2.00
2022-07-28T23:56:52.526Z,2.40
